createdAt,value
2023-05-09T00:01:24.510Z,99239.44
2023-05-09T00:03:51.625Z,99240.28
2023-05-09T00:06:19.496Z,99238.53
2023-05-09T00:08:45.987Z,99233.19
2023-05-09T00:11:12.499Z,99239.41
2023-05-09T00:13:39.190Z,99233.25
2023-05-09T00:16:06.110Z,99229.66
2023-05-09T00:18:33.990Z,99235.81
2023-05-09T00:21:01.030Z,99236.72
2023-05-09T00:23:27.508Z,99223.53
2023-05-09T00:25:54.471Z,99227.91
2023-05-09T00:28:20.930Z,99223.47
2023-05-09T00:30:47.416Z,99228.69
2023-05-09T00:33:13.878Z,99227.72
2023-05-09T00:35:40.407Z,99228.59
2023-05-09T00:38:06.870Z,99235.56
2023-05-09T00:40:36.055Z,99224.13
2023-05-09T00:43:02.638Z,99217.94
2023-05-09T00:45:29.200Z,99228.44
2023-05-09T00:47:59.204Z,99222.25
2023-05-09T00:50:25.816Z,99227.53
2023-05-09T00:52:52.314Z,99219.63
2023-05-09T00:55:22.389Z,99222.25
2023-05-09T00:57:51.826Z,99207.22
2023-05-09T01:00:18.663Z,99212.38
2023-05-09T01:02:50.881Z,99207.97
2023-05-09T01:05:22.623Z,99209.81
2023-05-09T01:08:21.642Z,99200.16
2023-05-09T01:10:54.293Z,99206.31
2023-05-09T01:13:30.184Z,99205.44
2023-05-09T01:16:09.353Z,99201.88
2023-05-09T01:18:45.765Z,99196.53
2023-05-09T01:21:17.632Z,99190.31
2023-05-09T01:23:44.221Z,99187.69
2023-05-09T01:26:34.855Z,99184.22
2023-05-09T01:29:22.490Z,99183.25
2023-05-09T01:31:49.883Z,99184.91
2023-05-09T01:34:18.432Z,99181.38
2023-05-09T01:36:49.211Z,99180.41
2023-05-09T01:39:18.081Z,99174.22
2023-05-09T01:41:49.744Z,99173.34
2023-05-09T01:44:17.674Z,99178.59
2023-05-09T01:46:44.983Z,99173.34
2023-05-09T01:49:12.134Z,99175.13
2023-05-09T01:51:43.694Z,99174.13
2023-05-09T01:54:12.007Z,99181.16
2023-05-09T01:56:41.007Z,99173.25
2023-05-09T01:59:07.933Z,99176.88
2023-05-09T02:01:35.920Z,99172.31
2023-05-09T02:06:54.657Z,99173.25
2023-05-09T02:09:21.913Z,99175.06
2023-05-09T02:11:48.454Z,99171.50
2023-05-09T02:14:15.066Z,99169.69
2023-05-09T02:16:41.981Z,99170.44
2023-05-09T02:19:08.694Z,99172.16
2023-05-09T02:21:35.741Z,99174.78
2023-05-09T02:24:02.653Z,99169.44
2023-05-09T02:26:29.614Z,99168.56
2023-05-09T02:28:56.888Z,99165.91
2023-05-09T02:31:28.000Z,99165.84
2023-05-09T02:33:55.299Z,99157.84
2023-05-09T02:36:22.790Z,99159.56
2023-05-09T02:38:49.747Z,99165.91
2023-05-09T02:41:17.134Z,99163.16
2023-05-09T02:43:43.588Z,99160.59
2023-05-09T02:46:10.688Z,99164.19
2023-05-09T02:48:37.786Z,99159.81
2023-05-09T02:51:04.492Z,99163.28
2023-05-09T02:53:31.172Z,99162.41
2023-05-09T02:55:58.576Z,99161.41
2023-05-09T02:58:25.187Z,99153.38
2023-05-09T03:00:51.703Z,99152.53
2023-05-09T03:03:23.444Z,99162.28
2023-05-09T03:05:49.980Z,99142.81
2023-05-09T03:08:16.419Z,99149.84
2023-05-09T03:10:42.902Z,99155.19
2023-05-09T03:13:09.413Z,99153.38
2023-05-09T03:15:35.998Z,99150.78
2023-05-09T03:18:02.462Z,99140.97
2023-05-09T03:20:28.988Z,99141.06
2023-05-09T03:22:55.526Z,99143.66
2023-05-09T03:25:22.382Z,99134.81
2023-05-09T03:27:48.988Z,99141.88
2023-05-09T03:30:16.041Z,99134.78
2023-05-09T03:32:42.541Z,99128.66
2023-05-09T03:35:09.099Z,99136.59
2023-05-09T03:37:35.784Z,99125.09
2023-05-09T03:40:02.244Z,99120.63
2023-05-09T03:42:28.744Z,99123.25
2023-05-09T03:44:55.636Z,99120.59
2023-05-09T03:47:22.155Z,99119.75
2023-05-09T03:49:49.081Z,99123.22
2023-05-09T03:52:15.606Z,99118.03
2023-05-09T03:54:42.060Z,99124.13
2023-05-09T03:57:08.545Z,99123.22
2023-05-09T03:59:35.234Z,99123.03
2023-05-09T04:02:01.838Z,99117.81
2023-05-09T04:04:28.446Z,99109.84
2023-05-09T04:06:55.062Z,99116.97
2023-05-09T04:09:22.856Z,99114.09
2023-05-09T04:11:49.326Z,99117.59
2023-05-09T04:14:15.786Z,99115.94
2023-05-09T04:16:42.328Z,99116.84
2023-05-09T04:19:08.910Z,99118.69
2023-05-09T04:21:35.416Z,99116.94
2023-05-09T04:24:01.962Z,99116.00
2023-05-09T04:26:28.674Z,99109.94
2023-05-09T04:28:55.134Z,99111.75
2023-05-09T04:31:21.734Z,99103.84
2023-05-09T04:33:48.333Z,99110.09
2023-05-09T04:36:14.844Z,99112.84
2023-05-09T04:38:41.285Z,99126.22
2023-05-09T04:41:07.808Z,99121.06
2023-05-09T04:43:34.289Z,99115.78
2023-05-09T04:46:00.808Z,99114.03
2023-05-09T04:48:27.445Z,99112.50
2023-05-09T04:50:53.912Z,99113.41
2023-05-09T04:53:20.582Z,99109.97
2023-05-09T04:55:47.132Z,99110.03
2023-05-09T04:58:13.661Z,99104.78
2023-05-09T05:00:40.133Z,99097.75
2023-05-09T05:03:07.122Z,99091.59
2023-05-09T05:05:36.022Z,99097.75
2023-05-09T05:08:03.746Z,99103.03
2023-05-09T05:10:30.477Z,99095.16
2023-05-09T05:12:57.255Z,99098.78
2023-05-09T05:15:23.784Z,99089.06
2023-05-09T05:17:50.412Z,99077.59
2023-05-09T05:20:19.689Z,99079.47
2023-05-09T05:22:46.190Z,99079.53
2023-05-09T05:25:13.391Z,99074.31
2023-05-09T05:27:40.026Z,99076.09
2023-05-09T05:30:07.596Z,99075.25
2023-05-09T05:32:34.155Z,99072.69
2023-05-09T05:35:02.497Z,99062.13
2023-05-09T05:37:29.088Z,99070.94
2023-05-09T05:39:55.604Z,99070.97
2023-05-09T05:42:22.313Z,99071.91
2023-05-09T05:44:48.807Z,99068.38
2023-05-09T05:47:15.320Z,99063.09
2023-05-09T05:49:42.050Z,99057.78
2023-05-09T05:52:08.510Z,99059.59
2023-05-09T05:54:34.939Z,99070.19
2023-05-09T05:57:01.382Z,99065.75
2023-05-09T05:59:27.895Z,99059.59
2023-05-09T06:01:54.389Z,99059.59
2023-05-09T06:04:21.259Z,99053.44
2023-05-09T06:06:47.793Z,99053.44
2023-05-09T06:09:14.332Z,99053.44
2023-05-09T06:11:43.925Z,99047.25
2023-05-09T06:14:10.425Z,99046.34
2023-05-09T06:16:36.962Z,99047.19
2023-05-09T06:19:03.566Z,99048.06
2023-05-09T06:21:30.264Z,99039.22
2023-05-09T06:26:26.259Z,99041.84
2023-05-09T06:28:52.720Z,99030.31
2023-05-09T06:31:19.355Z,99033.88
2023-05-09T06:33:45.893Z,99025.91
2023-05-09T06:36:12.369Z,99028.56
2023-05-09T06:38:38.834Z,99013.47
2023-05-09T06:41:05.614Z,99027.59
2023-05-09T06:43:32.187Z,99016.09
2023-05-09T06:45:59.059Z,99014.25
2023-05-09T06:48:25.776Z,99011.56
2023-05-09T06:50:52.322Z,99021.31
2023-05-09T06:53:18.824Z,99017.72
2023-05-09T06:55:45.490Z,99012.38
2023-05-09T06:58:12.156Z,99010.59
2023-05-09T07:00:39.416Z,99003.50
2023-05-09T07:03:07.478Z,98999.00
2023-05-09T07:05:34.567Z,98998.94
2023-05-09T07:08:01.187Z,98989.16
2023-05-09T07:10:31.257Z,98990.84
2023-05-09T07:12:58.067Z,98980.19
2023-05-09T07:15:39.761Z,98988.06
2023-05-09T07:18:07.557Z,98984.44
2023-05-09T07:20:34.116Z,98979.03
2023-05-09T07:23:00.763Z,98978.13
2023-05-09T07:25:27.288Z,98974.50
2023-05-09T07:27:53.746Z,98971.69
2023-05-09T07:30:20.319Z,98971.56
2023-05-09T07:32:46.967Z,98975.84
2023-05-09T07:35:13.748Z,98961.53
2023-05-09T07:37:40.723Z,98956.94
2023-05-09T07:40:08.091Z,98951.44
2023-05-09T07:42:34.588Z,98951.19
2023-05-09T07:45:01.261Z,98944.75
2023-05-09T07:47:27.845Z,98942.66
2023-05-09T07:49:54.397Z,98943.16
2023-05-09T07:52:21.105Z,98943.78
2023-05-09T07:54:47.653Z,98940.03
2023-05-09T07:57:14.276Z,98936.25
2023-05-09T07:59:41.095Z,98942.91
2023-05-09T08:02:07.843Z,98932.69
2023-05-09T08:04:37.696Z,98936.56
2023-05-09T08:07:04.910Z,98930.88
2023-05-09T08:09:31.449Z,98915.53
2023-05-09T08:11:58.413Z,98920.81
2023-05-09T08:14:25.007Z,98914.25
2023-05-09T08:16:51.598Z,98899.41
2023-05-09T08:19:18.086Z,98907.75
2023-05-09T08:21:44.570Z,98900.81
2023-05-09T08:24:11.016Z,98901.63
2023-05-09T08:26:37.512Z,98899.28
2023-05-09T08:29:03.993Z,98891.94
2023-05-09T08:31:30.626Z,98886.47
2023-05-09T08:33:57.176Z,98884.44
2023-05-09T08:36:23.718Z,98885.03
2023-05-09T08:38:50.330Z,98878.22
2023-05-09T08:41:17.054Z,98872.50
2023-05-09T08:43:44.244Z,98873.81
2023-05-09T08:46:11.744Z,98865.81
2023-05-09T08:48:39.691Z,98867.41
2023-05-09T08:51:07.321Z,98867.66
2023-05-09T08:53:34.502Z,98862.34
2023-05-09T08:56:01.793Z,98859.81
2023-05-09T08:58:28.437Z,98853.53
2023-05-09T09:00:55.709Z,98855.28
2023-05-09T09:03:23.677Z,98851.59
2023-05-09T09:05:51.699Z,98851.31
2023-05-09T09:08:18.731Z,98854.25
2023-05-09T09:10:48.585Z,98848.06
2023-05-09T09:13:17.454Z,98847.19
2023-05-09T09:15:46.256Z,98843.03
2023-05-09T09:18:18.272Z,98848.50
2023-05-09T09:20:56.673Z,98838.59
2023-05-09T09:23:25.663Z,98845.06
2023-05-09T09:26:04.914Z,98840.69
2023-05-09T09:28:31.623Z,98829.72
2023-05-09T09:30:58.388Z,98825.78
2023-05-09T09:33:26.380Z,98832.97
2023-05-09T09:35:55.445Z,98827.53
2023-05-09T09:38:24.433Z,98822.28
2023-05-09T09:40:55.767Z,98812.72
2023-05-09T09:43:32.120Z,98815.03
2023-05-09T09:46:06.437Z,98802.91
2023-05-09T09:48:36.402Z,98807.09
2023-05-09T09:51:10.785Z,98798.22
2023-05-09T09:53:41.497Z,98787.69
2023-05-09T09:56:08.750Z,98795.13
2023-05-09T09:58:35.665Z,98784.25
2023-05-09T10:01:14.105Z,98773.06
2023-05-09T10:03:46.340Z,98780.97
2023-05-09T10:06:16.771Z,98774.69
2023-05-09T10:08:47.103Z,98768.97
2023-05-09T10:11:14.001Z,98757.75
2023-05-09T10:13:40.636Z,98756.66
2023-05-09T10:16:08.874Z,98759.88
2023-05-09T10:18:36.224Z,98746.94
2023-05-09T10:21:05.097Z,98742.81
2023-05-09T10:23:34.473Z,98740.38
2023-05-09T10:26:16.492Z,98738.47
2023-05-09T10:28:46.034Z,98729.19
2023-05-09T10:31:27.345Z,98745.75
2023-05-09T10:33:55.947Z,98740.22
2023-05-09T10:36:25.926Z,98728.75
2023-05-09T10:38:55.286Z,98724.78
2023-05-09T10:41:22.571Z,98721.16
2023-05-09T10:43:49.571Z,98716.94
2023-05-09T10:46:16.797Z,98717.97
2023-05-09T10:48:44.118Z,98708.81
2023-05-09T10:51:11.951Z,98695.03
2023-05-09T10:53:46.132Z,98689.50
2023-05-09T10:56:33.259Z,98689.72
2023-05-09T10:59:00.750Z,98683.53
2023-05-09T11:01:39.140Z,98672.25
2023-05-09T11:04:14.519Z,98671.97
2023-05-09T11:06:52.130Z,98666.31
2023-05-09T11:09:39.210Z,98666.47
2023-05-09T11:12:08.513Z,98669.31
2023-05-09T11:14:37.987Z,98663.44
2023-05-09T11:17:06.884Z,98649.72
2023-05-09T11:19:36.911Z,98650.59
2023-05-09T11:22:21.490Z,98641.28
2023-05-09T11:24:50.217Z,98629.22
2023-05-09T11:27:28.311Z,98613.44
2023-05-09T11:29:56.194Z,98602.53
2023-05-09T11:32:28.382Z,98618.78
2023-05-09T11:35:15.539Z,98616.84
2023-05-09T11:37:47.026Z,98608.69
2023-05-09T11:40:15.799Z,98604.38
2023-05-09T11:42:44.758Z,98604.75
2023-05-09T11:45:12.998Z,98596.75
2023-05-09T11:47:40.923Z,98591.84
2023-05-09T11:50:09.851Z,98588.53
2023-05-09T11:52:40.873Z,98592.88
2023-05-09T11:55:12.777Z,98584.38
2023-05-09T11:57:41.721Z,98585.06
2023-05-09T12:00:10.383Z,98582.63
2023-05-09T12:02:37.893Z,98576.22
2023-05-09T12:05:13.669Z,98571.44
2023-05-09T12:07:41.248Z,98571.00
2023-05-09T12:10:13.657Z,98578.84
2023-05-09T12:12:48.821Z,98566.13
2023-05-09T12:15:17.068Z,98565.16
2023-05-09T12:17:45.304Z,98560.44
2023-05-09T12:20:12.683Z,98559.88
2023-05-09T12:22:43.212Z,98552.91
2023-05-09T12:25:12.997Z,98558.63
2023-05-09T12:27:41.153Z,98558.00
2023-05-09T12:30:10.621Z,98554.25
2023-05-09T12:32:39.578Z,98548.19
2023-05-09T12:35:10.578Z,98551.00
2023-05-09T12:37:37.775Z,98549.75
2023-05-09T12:40:04.877Z,98547.59
2023-05-09T12:42:32.555Z,98543.41
2023-05-09T12:45:01.320Z,98541.16
2023-05-09T12:47:29.524Z,98546.28
2023-05-09T12:50:00.852Z,98542.63
2023-05-09T12:53:01.489Z,98538.09
2023-05-09T12:55:29.687Z,98539.53
2023-05-09T12:58:01.959Z,98532.06
2023-05-09T13:00:48.797Z,98531.41
2023-05-09T13:03:41.521Z,98520.50
2023-05-09T13:06:13.504Z,98529.53
2023-05-09T13:08:40.929Z,98525.00
2023-05-09T13:11:16.440Z,98526.34
2023-05-09T13:13:43.793Z,98517.03
2023-05-09T13:16:11.715Z,98521.91
2023-05-09T13:18:39.916Z,98523.66
2023-05-09T13:21:09.296Z,98522.78
2023-05-09T13:23:35.780Z,98503.28
2023-05-09T13:26:02.212Z,98511.34
2023-05-09T13:28:28.990Z,98511.50
2023-05-09T13:30:55.516Z,98511.31
2023-05-09T13:33:26.017Z,98504.47
2023-05-09T13:35:53.271Z,98517.50
2023-05-09T13:38:20.022Z,98515.47
2023-05-09T13:40:46.570Z,98506.28
2023-05-09T13:43:13.021Z,98503.25
2023-05-09T13:45:39.473Z,98500.38
2023-05-09T13:48:06.329Z,98497.94
2023-05-09T13:50:32.823Z,98496.47
2023-05-09T13:52:59.315Z,98480.97
2023-05-09T13:55:30.013Z,98479.69
2023-05-09T13:57:56.960Z,98484.31
2023-05-09T14:00:26.462Z,98481.97
2023-05-09T14:02:53.104Z,98480.94
2023-05-09T14:05:19.844Z,98472.66
2023-05-09T14:07:46.419Z,98465.63
2023-05-09T14:10:13.040Z,98461.00
2023-05-09T14:12:40.057Z,98459.75
2023-05-09T14:15:08.258Z,98455.63
2023-05-09T14:17:34.905Z,98448.16
2023-05-09T14:20:01.478Z,98465.81
2023-05-09T14:22:28.227Z,98445.00
2023-05-09T14:24:56.554Z,98444.22
2023-05-09T14:27:23.156Z,98446.13
2023-05-09T14:29:49.660Z,98443.97
2023-05-09T14:32:16.168Z,98426.25
2023-05-09T14:34:42.769Z,98424.13
2023-05-09T14:37:13.640Z,98425.16
2023-05-09T14:39:42.123Z,98411.63
2023-05-09T14:42:11.376Z,98408.91
2023-05-09T14:44:38.699Z,98401.94
2023-05-09T14:47:05.377Z,98405.28
2023-05-09T14:49:32.486Z,98399.59
2023-05-09T14:51:59.167Z,98397.38
2023-05-09T14:54:26.064Z,98388.69
2023-05-09T14:56:52.621Z,98391.84
2023-05-09T14:59:19.186Z,98388.66
2023-05-09T15:01:46.230Z,98389.78
2023-05-09T15:04:12.852Z,98387.53
2023-05-09T15:06:39.856Z,98384.53
2023-05-09T15:09:06.437Z,98381.34
2023-05-09T15:11:43.761Z,98378.47
2023-05-09T15:14:14.003Z,98373.75
2023-05-09T15:16:40.672Z,98365.69
2023-05-09T15:19:08.204Z,98365.06
2023-05-09T15:21:35.021Z,98364.84
2023-05-09T15:24:02.364Z,98367.59
2023-05-09T15:26:29.980Z,98365.22
2023-05-09T15:28:56.551Z,98370.81
2023-05-09T15:31:24.060Z,98357.44
2023-05-09T15:33:50.882Z,98354.75
2023-05-09T15:36:17.397Z,98361.22
2023-05-09T15:38:48.293Z,98359.16
2023-05-09T15:41:15.615Z,98347.94
2023-05-09T15:43:42.103Z,98349.06
2023-05-09T15:46:08.619Z,98347.03
2023-05-09T15:48:35.104Z,98341.94
2023-05-09T15:51:02.684Z,98343.34
2023-05-09T15:53:29.395Z,98333.50
2023-05-09T15:55:57.017Z,98342.53
2023-05-09T15:58:23.550Z,98337.59
2023-05-09T16:00:50.145Z,98336.28
2023-05-09T16:03:16.892Z,98333.09
2023-05-09T16:05:43.839Z,98332.50
2023-05-09T16:08:10.446Z,98328.09
2023-05-09T16:10:36.929Z,98332.41
2023-05-09T16:13:03.927Z,98321.59
2023-05-09T16:15:30.505Z,98328.56
2023-05-09T16:17:56.965Z,98322.31
2023-05-09T16:20:23.531Z,98314.56
2023-05-09T16:22:50.013Z,98327.91
2023-05-09T16:25:16.726Z,98321.06
2023-05-09T16:27:46.451Z,98312.44
2023-05-09T16:30:13.862Z,98309.13
2023-05-09T16:32:40.601Z,98307.78
2023-05-09T16:35:07.690Z,98312.97
2023-05-09T16:37:35.668Z,98315.31
2023-05-09T16:40:02.865Z,98312.31
2023-05-09T16:42:29.402Z,98313.34
2023-05-09T16:44:56.064Z,98310.75
2023-05-09T16:47:22.722Z,98309.75
2023-05-09T16:49:49.215Z,98308.13
2023-05-09T16:52:15.692Z,98300.16
2023-05-09T16:54:42.187Z,98304.53
2023-05-09T16:57:08.742Z,98303.50
2023-05-09T16:59:35.322Z,98300.97
2023-05-09T17:02:02.166Z,98304.53
2023-05-09T17:04:29.343Z,98296.81
2023-05-09T17:06:56.001Z,98297.69
2023-05-09T17:09:22.579Z,98295.19
2023-05-09T17:11:49.078Z,98299.84
2023-05-09T17:14:15.552Z,98290.59
2023-05-09T17:16:42.090Z,98293.78
2023-05-09T17:19:08.579Z,98297.44
2023-05-09T17:21:35.424Z,98289.81
2023-05-09T17:24:02.159Z,98281.28
2023-05-09T17:26:29.588Z,98280.22
2023-05-09T17:28:56.185Z,98273.38
2023-05-09T17:31:22.809Z,98277.34
2023-05-09T17:33:49.712Z,98271.28
2023-05-09T17:36:16.311Z,98271.56
2023-05-09T17:38:43.148Z,98272.44
2023-05-09T17:41:09.689Z,98274.22
2023-05-09T17:43:36.270Z,98272.66
2023-05-09T17:46:03.690Z,98277.50
2023-05-09T17:48:30.389Z,98268.88
2023-05-09T17:50:56.897Z,98269.25
2023-05-09T17:53:23.639Z,98270.34
2023-05-09T17:55:50.704Z,98265.97
2023-05-09T17:58:17.203Z,98270.50
2023-05-09T18:00:44.585Z,98266.34
2023-05-09T18:03:11.163Z,98267.31
2023-05-09T18:05:37.956Z,98267.38
2023-05-09T18:08:04.764Z,98265.03
2023-05-09T18:10:31.306Z,98255.47
2023-05-09T18:12:57.907Z,98259.34
2023-05-09T18:15:25.495Z,98256.91
2023-05-09T18:17:53.809Z,98245.56
2023-05-09T18:20:23.586Z,98251.94
2023-05-09T18:22:50.063Z,98246.88
2023-05-09T18:25:17.203Z,98242.59
2023-05-09T18:27:43.711Z,98236.44
2023-05-09T18:30:10.542Z,98240.03
2023-05-09T18:32:37.058Z,98237.38
2023-05-09T18:35:04.075Z,98236.50
2023-05-09T18:37:30.851Z,98236.03
2023-05-09T18:39:57.348Z,98234.22
2023-05-09T18:42:23.861Z,98233.34
2023-05-09T18:44:50.539Z,98235.34
2023-05-09T18:47:17.151Z,98239.00
2023-05-09T18:49:43.841Z,98242.81
2023-05-09T18:52:10.730Z,98243.94
2023-05-09T18:54:38.122Z,98250.44
2023-05-09T18:57:04.622Z,98248.78
2023-05-09T18:59:31.832Z,98245.28
2023-05-09T19:01:58.278Z,98244.47
2023-05-09T19:04:25.343Z,98245.50
2023-05-09T19:06:51.884Z,98247.34
2023-05-09T19:09:18.420Z,98245.81
2023-05-09T19:11:45.121Z,98242.44
2023-05-09T19:14:14.196Z,98246.22
2023-05-09T19:16:40.670Z,98244.66
2023-05-09T19:19:07.643Z,98242.31
2023-05-09T19:21:35.516Z,98238.06
2023-05-09T19:24:04.243Z,98244.28
2023-05-09T19:26:30.719Z,98236.56
2023-05-09T19:28:57.252Z,98240.22
2023-05-09T19:31:25.469Z,98237.53
2023-05-09T19:33:52.122Z,98234.22
2023-05-09T19:36:18.573Z,98233.28
2023-05-09T19:38:45.589Z,98229.03
2023-05-09T19:41:13.851Z,98235.44
2023-05-09T19:43:40.549Z,98237.25
2023-05-09T19:46:09.963Z,98224.84
2023-05-09T19:48:36.562Z,98230.38
2023-05-09T19:51:03.973Z,98219.13
2023-05-09T19:53:33.685Z,98223.75
2023-05-09T19:56:00.152Z,98218.41
2023-05-09T19:58:27.633Z,98222.03
2023-05-09T20:00:54.134Z,98212.81
2023-05-09T20:03:20.704Z,98211.41
2023-05-09T20:05:50.918Z,98218.00
2023-05-09T20:08:17.365Z,98212.88
2023-05-09T20:10:44.013Z,98201.50
2023-05-09T20:13:10.668Z,98205.78
2023-05-09T20:15:37.231Z,98206.53
2023-05-09T20:18:05.755Z,98194.97
2023-05-09T20:20:32.590Z,98190.50
2023-05-09T20:23:02.102Z,98192.53
2023-05-09T20:25:28.749Z,98174.88
2023-05-09T20:27:57.685Z,98174.00
2023-05-09T20:30:26.992Z,98169.66
2023-05-09T20:32:53.641Z,98171.28
2023-05-09T20:35:23.211Z,98170.41
2023-05-09T20:37:49.746Z,98170.41
2023-05-09T20:40:16.462Z,98174.72
2023-05-09T20:42:43.631Z,98168.69
2023-05-09T20:45:10.371Z,98176.81
2023-05-09T20:47:36.936Z,98176.63
2023-05-09T20:50:03.649Z,98168.78
2023-05-09T20:52:30.227Z,98171.56
2023-05-09T20:54:56.827Z,98170.81
2023-05-09T20:57:23.310Z,98169.13
2023-05-09T20:59:52.744Z,98157.28
2023-05-09T21:02:19.224Z,98158.69
2023-05-09T21:04:45.729Z,98147.84
2023-05-09T21:07:12.427Z,98159.84
2023-05-09T21:09:38.975Z,98138.06
2023-05-09T21:12:05.734Z,98144.13
2023-05-09T21:14:32.260Z,98135.38
2023-05-09T21:16:58.813Z,98137.06
2023-05-09T21:19:25.455Z,98137.72
2023-05-09T21:21:52.242Z,98135.06
2023-05-09T21:24:18.705Z,98138.81
2023-05-09T21:26:45.245Z,98144.53
2023-05-09T21:29:11.705Z,98145.19
2023-05-09T21:31:38.377Z,98142.38
2023-05-09T21:34:09.903Z,98138.22
2023-05-09T21:36:42.954Z,98130.47
2023-05-09T21:39:13.894Z,98134.81
2023-05-09T21:41:42.934Z,98126.06
2023-05-09T21:44:11.105Z,98124.44
2023-05-09T21:46:37.863Z,98121.78
2023-05-09T21:49:04.338Z,98121.09
2023-05-09T21:51:31.570Z,98120.03
2023-05-09T21:53:58.585Z,98132.38
2023-05-09T21:56:25.096Z,98120.91
2023-05-09T21:58:55.011Z,98126.06
2023-05-09T22:01:21.664Z,98118.94
2023-05-09T22:03:50.989Z,98113.25
2023-05-09T22:06:17.536Z,98119.94
2023-05-09T22:08:44.021Z,98117.41
2023-05-09T22:11:11.489Z,98112.28
2023-05-09T22:13:39.248Z,98111.53
2023-05-09T22:16:07.120Z,98107.19
2023-05-09T22:18:33.653Z,98104.59
2023-05-09T22:21:00.506Z,98108.03
2023-05-09T22:23:27.283Z,98111.31
2023-05-09T22:25:57.182Z,98104.31
2023-05-09T22:28:23.680Z,98096.66
2023-05-09T22:30:50.159Z,98103.91
2023-05-09T22:33:16.696Z,98098.19
2023-05-09T22:35:43.222Z,98092.75
2023-05-09T22:38:16.543Z,98086.59
2023-05-09T22:40:43.548Z,98083.38
2023-05-09T22:43:10.791Z,98082.75
2023-05-09T22:45:37.660Z,98089.34
2023-05-09T22:48:04.425Z,98081.38
2023-05-09T22:50:30.984Z,98083.03
2023-05-09T22:53:02.050Z,98078.59
2023-05-09T22:55:28.670Z,98074.31
2023-05-09T22:57:55.230Z,98058.50
2023-05-09T23:00:24.464Z,98069.34
2023-05-09T23:02:51.025Z,98070.00
2023-05-09T23:05:20.646Z,98062.91
2023-05-09T23:07:49.316Z,98066.69
2023-05-09T23:10:18.835Z,98058.78
2023-05-09T23:12:45.617Z,98052.56
2023-05-09T23:15:12.122Z,98047.22
2023-05-09T23:17:41.637Z,98040.34
2023-05-09T23:20:08.726Z,98048.41
2023-05-09T23:22:40.650Z,98036.66
2023-05-09T23:25:07.427Z,98029.72
2023-05-09T23:27:33.885Z,98043.00
2023-05-09T23:30:00.338Z,98042.47
2023-05-09T23:32:26.938Z,98031.59
2023-05-09T23:34:53.494Z,98028.22
2023-05-09T23:37:19.999Z,98029.19
2023-05-09T23:39:50.746Z,98030.81
2023-05-09T23:42:17.220Z,98025.81
2023-05-09T23:44:43.902Z,98020.50
2023-05-09T23:47:10.385Z,98023.88
2023-05-09T23:49:36.951Z,98014.25
2023-05-09T23:52:03.461Z,98012.53
2023-05-09T23:54:30.135Z,98008.16
2023-05-09T23:57:00.158Z,98007.06
2023-05-09T23:59:33.154Z,98007.09
